sensor_id;sensor_type;location;lat;lon;timestamp;pressure;altitude;pressure_sealevel;temperature;humidity
27980;BME280;15315;50.836;4.430;2023-03-20T00:04:37;101523.00;;;11.51;80.55
27980;BME280;15315;50.836;4.430;2023-03-20T00:14:38;101521.84;;;11.26;82.72
27980;BME280;15315;50.836;4.430;2023-03-20T00:24:39;101517.50;;;11.23;82.31
27980;BME280;15315;50.836;4.430;2023-03-20T00:34:40;101523.09;;;11.64;79.56
27980;BME280;15315;50.836;4.430;2023-03-20T00:44:49;101546.72;;;11.46;80.65
27980;BME280;15315;50.836;4.430;2023-03-20T00:54:52;101556.69;;;12.30;78.22
27980;BME280;15315;50.836;4.430;2023-03-20T01:04:52;101523.97;;;11.64;80.26
27980;BME280;15315;50.836;4.430;2023-03-20T01:14:55;101504.81;;;11.25;82.66
27980;BME280;15315;50.836;4.430;2023-03-20T01:24:56;101530.56;;;11.74;80.92
27980;BME280;15315;50.836;4.430;2023-03-20T01:34:57;101516.09;;;12.59;76.44
27980;BME280;15315;50.836;4.430;2023-03-20T01:44:57;101502.94;;;12.67;76.03
27980;BME280;15315;50.836;4.430;2023-03-20T01:54:57;101514.78;;;12.38;78.12
27980;BME280;15315;50.836;4.430;2023-03-20T02:05:01;101520.25;;;12.09;79.16
27980;BME280;15315;50.836;4.430;2023-03-20T02:15:05;101525.69;;;12.36;77.53
27980;BME280;15315;50.836;4.430;2023-03-20T02:56:27;101489.47;;;12.38;78.18
27980;BME280;15315;50.836;4.430;2023-03-20T03:06:36;101484.50;;;12.18;79.46
27980;BME280;15315;50.836;4.430;2023-03-20T03:16:39;101470.09;;;12.18;79.32
27980;BME280;15315;50.836;4.430;2023-03-20T03:26:40;101471.59;;;12.09;79.70
27980;BME280;15315;50.836;4.430;2023-03-20T03:37:05;101478.34;;;11.74;81.97
27980;BME280;15315;50.836;4.430;2023-03-20T03:47:18;101469.88;;;11.80;82.67
27980;BME280;15315;50.836;4.430;2023-03-20T03:57:26;101470.66;;;11.68;82.84
27980;BME280;15315;50.836;4.430;2023-03-20T04:07:27;101466.34;;;11.22;84.06
27980;BME280;15315;50.836;4.430;2023-03-20T04:17:28;101472.84;;;11.61;83.06
27980;BME280;15315;50.836;4.430;2023-03-20T04:27:29;101475.25;;;11.38;84.81
27980;BME280;15315;50.836;4.430;2023-03-20T04:37:29;101475.41;;;11.35;84.62
27980;BME280;15315;50.836;4.430;2023-03-20T04:47:29;101462.03;;;11.90;81.68
27980;BME280;15315;50.836;4.430;2023-03-20T04:57:30;101455.06;;;11.29;84.81
27980;BME280;15315;50.836;4.430;2023-03-20T05:07:31;101455.25;;;11.12;86.73
27980;BME280;15315;50.836;4.430;2023-03-20T05:17:32;101441.09;;;11.23;86.05
27980;BME280;15315;50.836;4.430;2023-03-20T05:27:32;101443.34;;;11.00;87.12
27980;BME280;15315;50.836;4.430;2023-03-20T05:37:32;101432.78;;;11.26;85.80
27980;BME280;15315;50.836;4.430;2023-03-20T05:47:33;101441.84;;;11.39;84.48
27980;BME280;15315;50.836;4.430;2023-03-20T05:57:33;101458.59;;;11.16;85.42
27980;BME280;15315;50.836;4.430;2023-03-20T06:07:34;101461.00;;;11.50;84.78
27980;BME280;15315;50.836;4.430;2023-03-20T06:17:34;101470.38;;;11.29;86.19
27980;BME280;15315;50.836;4.430;2023-03-20T06:27:35;101478.06;;;11.21;87.10
27980;BME280;15315;50.836;4.430;2023-03-20T06:37:35;101483.59;;;11.19;87.38
27980;BME280;15315;50.836;4.430;2023-03-20T06:47:36;101475.31;;;10.47;92.83
27980;BME280;15315;50.836;4.430;2023-03-20T06:57:37;101474.38;;;10.78;88.54
27980;BME280;15315;50.836;4.430;2023-03-20T07:07:37;101484.31;;;10.62;93.30
27980;BME280;15315;50.836;4.430;2023-03-20T07:17:38;101496.38;;;10.40;93.40
27980;BME280;15315;50.836;4.430;2023-03-20T07:27:38;101494.31;;;11.35;87.58
27980;BME280;15315;50.836;4.430;2023-03-20T07:37:39;101483.16;;;11.97;83.29
27980;BME280;15315;50.836;4.430;2023-03-20T07:47:41;101483.88;;;12.42;80.18
27980;BME280;15315;50.836;4.430;2023-03-20T07:57:42;101469.53;;;12.27;80.30
27980;BME280;15315;50.836;4.430;2023-03-20T08:07:42;101481.78;;;12.18;79.84
27980;BME280;15315;50.836;4.430;2023-03-20T08:17:45;101481.84;;;12.72;76.66
27980;BME280;15315;50.836;4.430;2023-03-20T08:27:45;101492.16;;;12.12;78.57
27980;BME280;15315;50.836;4.430;2023-03-20T08:37:45;101500.47;;;12.50;76.55
27980;BME280;15315;50.836;4.430;2023-03-20T08:47:47;101507.41;;;11.99;78.59
27980;BME280;15315;50.836;4.430;2023-03-20T08:57:47;101522.31;;;13.00;75.05
27980;BME280;15315;50.836;4.430;2023-03-20T09:07:48;101523.41;;;12.97;73.50
27980;BME280;15315;50.836;4.430;2023-03-20T09:17:48;101529.44;;;12.62;72.46
27980;BME280;15315;50.836;4.430;2023-03-20T09:27:53;101541.22;;;12.47;72.88
27980;BME280;15315;50.836;4.430;2023-03-20T09:37:56;101530.66;;;12.97;71.55
27980;BME280;15315;50.836;4.430;2023-03-20T09:48:04;101531.41;;;13.51;69.52
27980;BME280;15315;50.836;4.430;2023-03-20T09:58:14;101522.94;;;13.30;69.07
27980;BME280;15315;50.836;4.430;2023-03-20T10:08:20;101510.66;;;13.77;67.32
27980;BME280;15315;50.836;4.430;2023-03-20T10:18:24;101507.00;;;13.65;68.04
27980;BME280;15315;50.836;4.430;2023-03-20T10:39:08;101494.94;;;13.82;66.74
27980;BME280;15315;50.836;4.430;2023-03-20T10:49:21;101474.88;;;14.69;65.63
27980;BME280;15315;50.836;4.430;2023-03-20T11:09:26;101455.06;;;14.20;66.92
27980;BME280;15315;50.836;4.430;2023-03-20T11:19:33;101437.19;;;14.41;67.67
27980;BME280;15315;50.836;4.430;2023-03-20T11:29:34;101436.38;;;14.99;66.12
27980;BME280;15315;50.836;4.430;2023-03-20T11:39:35;101431.53;;;14.92;64.64
27980;BME280;15315;50.836;4.430;2023-03-20T11:49:51;101412.16;;;14.61;65.66
27980;BME280;15315;50.836;4.430;2023-03-20T11:59:54;101417.22;;;14.42;65.35
27980;BME280;15315;50.836;4.430;2023-03-20T12:10:13;101418.84;;;14.21;65.73
27980;BME280;15315;50.836;4.430;2023-03-20T12:31:13;101405.66;;;16.43;60.26
27980;BME280;15315;50.836;4.430;2023-03-20T12:41:21;101379.56;;;15.53;61.44
27980;BME280;15315;50.836;4.430;2023-03-20T12:51:53;101377.41;;;16.23;59.06
27980;BME280;15315;50.836;4.430;2023-03-20T13:12:39;101382.88;;;16.96;58.71
27980;BME280;15315;50.836;4.430;2023-03-20T13:22:58;101369.78;;;15.95;61.91
27980;BME280;15315;50.836;4.430;2023-03-20T13:43:44;101359.22;;;16.13;62.36
27980;BME280;15315;50.836;4.430;2023-03-20T14:04:11;101345.94;;;15.76;63.80
27980;BME280;15315;50.836;4.430;2023-03-20T14:14:32;101343.00;;;15.57;63.88
27980;BME280;15315;50.836;4.430;2023-03-20T14:24:43;101338.53;;;15.78;64.37
27980;BME280;15315;50.836;4.430;2023-03-20T14:34:59;101338.00;;;15.07;66.86
27980;BME280;15315;50.836;4.430;2023-03-20T14:45:05;101325.31;;;15.74;67.18
27980;BME280;15315;50.836;4.430;2023-03-20T15:05:30;101311.19;;;15.91;66.15
27980;BME280;15315;50.836;4.430;2023-03-20T15:15:31;101307.19;;;15.41;68.92
27980;BME280;15315;50.836;4.430;2023-03-20T15:25:37;101300.59;;;14.99;71.68
27980;BME280;15315;50.836;4.430;2023-03-20T15:35:38;101297.22;;;14.73;73.90
27980;BME280;15315;50.836;4.430;2023-03-20T15:45:40;101284.81;;;15.04;74.49
27980;BME280;15315;50.836;4.430;2023-03-20T15:55:47;101274.69;;;15.51;72.71
27980;BME280;15315;50.836;4.430;2023-03-20T16:05:50;101271.84;;;14.86;76.02
27980;BME280;15315;50.836;4.430;2023-03-20T16:15:51;101263.34;;;14.90;75.32
27980;BME280;15315;50.836;4.430;2023-03-20T16:25:56;101273.34;;;15.34;72.83
27980;BME280;15315;50.836;4.430;2023-03-20T16:35:58;101262.72;;;15.42;72.47
27980;BME280;15315;50.836;4.430;2023-03-20T16:46:04;101261.22;;;15.27;73.98
27980;BME280;15315;50.836;4.430;2023-03-20T16:56:54;101273.47;;;14.88;78.12
27980;BME280;15315;50.836;4.430;2023-03-20T17:06:50;101272.63;;;14.18;81.62
27980;BME280;15315;50.836;4.430;2023-03-20T17:16:52;101270.13;;;14.15;84.74
27980;BME280;15315;50.836;4.430;2023-03-20T17:26:54;101271.72;;;13.83;87.98
27980;BME280;15315;50.836;4.430;2023-03-20T17:36:55;101272.47;;;14.43;83.94
27980;BME280;15315;50.836;4.430;2023-03-20T17:46:56;101276.94;;;14.55;82.38
27980;BME280;15315;50.836;4.430;2023-03-20T17:56:57;101274.78;;;14.94;80.11
27980;BME280;15315;50.836;4.430;2023-03-20T18:06:57;101262.03;;;14.61;80.93
27980;BME280;15315;50.836;4.430;2023-03-20T18:16:57;101284.13;;;14.56;80.54
27980;BME280;15315;50.836;4.430;2023-03-20T18:26:58;101272.81;;;15.07;78.37
27980;BME280;15315;50.836;4.430;2023-03-20T18:36:58;101274.91;;;14.70;79.19
27980;BME280;15315;50.836;4.430;2023-03-20T18:46:59;101281.59;;;14.99;78.30
27980;BME280;15315;50.836;4.430;2023-03-20T18:56:59;101284.34;;;15.43;75.88
27980;BME280;15315;50.836;4.430;2023-03-20T19:07:00;101277.88;;;14.89;77.69
27980;BME280;15315;50.836;4.430;2023-03-20T19:17:00;101267.16;;;15.10;76.67
27980;BME280;15315;50.836;4.430;2023-03-20T19:27:01;101276.50;;;14.72;78.45
27980;BME280;15315;50.836;4.430;2023-03-20T19:37:01;101266.31;;;14.98;77.23
27980;BME280;15315;50.836;4.430;2023-03-20T19:47:01;101275.91;;;15.24;75.98
27980;BME280;15315;50.836;4.430;2023-03-20T19:57:04;101262.47;;;15.12;76.14
27980;BME280;15315;50.836;4.430;2023-03-20T20:07:14;101261.47;;;15.13;76.68
27980;BME280;15315;50.836;4.430;2023-03-20T20:17:15;101261.56;;;14.78;77.34
27980;BME280;15315;50.836;4.430;2023-03-20T20:27:15;101272.41;;;14.32;79.78
27980;BME280;15315;50.836;4.430;2023-03-20T20:37:18;101268.56;;;14.58;79.31
27980;BME280;15315;50.836;4.430;2023-03-20T20:47:19;101268.25;;;14.39;80.72
27980;BME280;15315;50.836;4.430;2023-03-20T20:57:20;101260.44;;;14.47;80.86
27980;BME280;15315;50.836;4.430;2023-03-20T21:07:22;101257.72;;;14.58;79.80
27980;BME280;15315;50.836;4.430;2023-03-20T21:17:23;101266.09;;;14.55;80.21
27980;BME280;15315;50.836;4.430;2023-03-20T21:27:24;101271.66;;;13.95;83.24
27980;BME280;15315;50.836;4.430;2023-03-20T21:37:24;101288.50;;;14.11;85.69
27980;BME280;15315;50.836;4.430;2023-03-20T21:47:25;101275.25;;;14.31;86.07
27980;BME280;15315;50.836;4.430;2023-03-20T21:57:26;101270.59;;;15.12;83.52
27980;BME280;15315;50.836;4.430;2023-03-20T22:07:29;101247.53;;;15.28;82.03
27980;BME280;15315;50.836;4.430;2023-03-20T22:17:30;101247.31;;;14.98;82.55
27980;BME280;15315;50.836;4.430;2023-03-20T22:27:33;101246.69;;;15.06;80.41
27980;BME280;15315;50.836;4.430;2023-03-20T22:37:33;101247.63;;;15.27;79.38
27980;BME280;15315;50.836;4.430;2023-03-20T22:47:34;101230.47;;;15.49;77.45
27980;BME280;15315;50.836;4.430;2023-03-20T22:57:35;101219.19;;;15.64;76.52
27980;BME280;15315;50.836;4.430;2023-03-20T23:07:35;101202.09;;;15.73;75.69
27980;BME280;15315;50.836;4.430;2023-03-20T23:17:36;101198.19;;;15.98;74.57
27980;BME280;15315;50.836;4.430;2023-03-20T23:27:36;101191.16;;;15.64;76.86
27980;BME280;15315;50.836;4.430;2023-03-20T23:37:37;101186.69;;;15.63;77.07
27980;BME280;15315;50.836;4.430;2023-03-20T23:47:38;101170.78;;;15.58;77.18
27980;BME280;15315;50.836;4.430;2023-03-20T23:57:38;101149.50;;;15.63;77.03
